sensor_id;sensor_type;location;lat;lon;timestamp;temperature;humidity
14798;DHT22;7490;63.708;20.368;2023-04-07T00:02:16;7.30;67.10
14798;DHT22;7490;63.708;20.368;2023-04-07T00:04:41;7.30;66.90
14798;DHT22;7490;63.708;20.368;2023-04-07T00:07:08;7.20;66.80
14798;DHT22;7490;63.708;20.368;2023-04-07T00:09:34;7.20;66.80
14798;DHT22;7490;63.708;20.368;2023-04-07T00:11:59;7.20;67.00
14798;DHT22;7490;63.708;20.368;2023-04-07T00:14:28;7.20;67.20
14798;DHT22;7490;63.708;20.368;2023-04-07T00:16:54;7.10;67.30
14798;DHT22;7490;63.708;20.368;2023-04-07T00:19:19;7.20;67.50
14798;DHT22;7490;63.708;20.368;2023-04-07T00:21:45;7.20;67.60
14798;DHT22;7490;63.708;20.368;2023-04-07T00:24:10;7.20;67.60
14798;DHT22;7490;63.708;20.368;2023-04-07T00:26:37;7.20;67.60
14798;DHT22;7490;63.708;20.368;2023-04-07T00:29:02;7.20;67.70
14798;DHT22;7490;63.708;20.368;2023-04-07T00:31:28;7.20;67.70
14798;DHT22;7490;63.708;20.368;2023-04-07T00:33:54;7.20;67.70
14798;DHT22;7490;63.708;20.368;2023-04-07T00:36:20;7.10;67.60
14798;DHT22;7490;63.708;20.368;2023-04-07T00:38:46;7.10;67.80
14798;DHT22;7490;63.708;20.368;2023-04-07T00:41:12;7.00;67.80
14798;DHT22;7490;63.708;20.368;2023-04-07T00:43:37;6.90;67.80
14798;DHT22;7490;63.708;20.368;2023-04-07T00:46:03;6.90;68.00
14798;DHT22;7490;63.708;20.368;2023-04-07T00:48:29;6.80;68.00
14798;DHT22;7490;63.708;20.368;2023-04-07T00:50:55;6.70;68.10
14798;DHT22;7490;63.708;20.368;2023-04-07T00:53:21;6.70;68.50
14798;DHT22;7490;63.708;20.368;2023-04-07T00:55:47;6.60;68.60
14798;DHT22;7490;63.708;20.368;2023-04-07T00:58:12;6.60;68.70
14798;DHT22;7490;63.708;20.368;2023-04-07T01:00:48;6.40;68.90
14798;DHT22;7490;63.708;20.368;2023-04-07T01:03:29;6.30;69.10
14798;DHT22;7490;63.708;20.368;2023-04-07T01:06:00;6.30;69.30
14798;DHT22;7490;63.708;20.368;2023-04-07T01:08:34;6.20;69.30
14798;DHT22;7490;63.708;20.368;2023-04-07T01:11:27;6.20;69.60
14798;DHT22;7490;63.708;20.368;2023-04-07T01:13:56;6.10;69.90
14798;DHT22;7490;63.708;20.368;2023-04-07T01:16:29;6.00;69.80
14798;DHT22;7490;63.708;20.368;2023-04-07T01:19:00;6.00;70.00
14798;DHT22;7490;63.708;20.368;2023-04-07T01:21:27;5.90;70.00
14798;DHT22;7490;63.708;20.368;2023-04-07T01:26:27;5.90;70.20
14798;DHT22;7490;63.708;20.368;2023-04-07T01:29:06;5.90;70.30
14798;DHT22;7490;63.708;20.368;2023-04-07T01:31:38;5.80;70.40
14798;DHT22;7490;63.708;20.368;2023-04-07T01:34:05;5.80;70.40
14798;DHT22;7490;63.708;20.368;2023-04-07T01:36:33;5.80;70.50
14798;DHT22;7490;63.708;20.368;2023-04-07T01:39:00;5.80;70.70
14798;DHT22;7490;63.708;20.368;2023-04-07T01:41:26;5.70;70.80
14798;DHT22;7490;63.708;20.368;2023-04-07T01:43:53;5.80;71.00
14798;DHT22;7490;63.708;20.368;2023-04-07T01:46:19;5.70;71.00
14798;DHT22;7490;63.708;20.368;2023-04-07T01:48:46;5.70;71.10
14798;DHT22;7490;63.708;20.368;2023-04-07T01:51:13;5.70;71.10
14798;DHT22;7490;63.708;20.368;2023-04-07T01:53:42;5.70;71.20
14798;DHT22;7490;63.708;20.368;2023-04-07T01:56:08;5.70;71.40
14798;DHT22;7490;63.708;20.368;2023-04-07T01:58:34;5.60;71.40
14798;DHT22;7490;63.708;20.368;2023-04-07T02:00:59;5.60;71.60
14798;DHT22;7490;63.708;20.368;2023-04-07T02:06:26;5.50;71.90
14798;DHT22;7490;63.708;20.368;2023-04-07T02:08:59;5.50;71.90
14798;DHT22;7490;63.708;20.368;2023-04-07T02:11:28;5.50;72.00
14798;DHT22;7490;63.708;20.368;2023-04-07T02:13:57;5.50;72.10
14798;DHT22;7490;63.708;20.368;2023-04-07T02:16:25;5.50;72.20
14798;DHT22;7490;63.708;20.368;2023-04-07T02:18:51;5.60;72.20
14798;DHT22;7490;63.708;20.368;2023-04-07T02:21:18;5.60;72.40
14798;DHT22;7490;63.708;20.368;2023-04-07T02:23:44;5.60;72.30
14798;DHT22;7490;63.708;20.368;2023-04-07T02:26:10;5.60;72.40
14798;DHT22;7490;63.708;20.368;2023-04-07T02:28:36;5.50;72.40
14798;DHT22;7490;63.708;20.368;2023-04-07T02:31:02;5.60;72.60
14798;DHT22;7490;63.708;20.368;2023-04-07T02:33:27;5.50;72.70
14798;DHT22;7490;63.708;20.368;2023-04-07T02:35:53;5.50;72.80
14798;DHT22;7490;63.708;20.368;2023-04-07T02:38:18;5.50;72.80
14798;DHT22;7490;63.708;20.368;2023-04-07T02:40:44;5.50;73.00
14798;DHT22;7490;63.708;20.368;2023-04-07T02:43:10;5.40;73.00
14798;DHT22;7490;63.708;20.368;2023-04-07T02:45:36;5.40;73.30
14798;DHT22;7490;63.708;20.368;2023-04-07T02:48:02;5.40;73.30
14798;DHT22;7490;63.708;20.368;2023-04-07T02:50:27;5.40;73.40
14798;DHT22;7490;63.708;20.368;2023-04-07T02:52:53;5.40;73.30
14798;DHT22;7490;63.708;20.368;2023-04-07T02:55:19;5.40;73.50
14798;DHT22;7490;63.708;20.368;2023-04-07T02:57:44;5.40;73.60
14798;DHT22;7490;63.708;20.368;2023-04-07T03:00:10;5.40;73.60
14798;DHT22;7490;63.708;20.368;2023-04-07T03:02:36;5.40;73.70
14798;DHT22;7490;63.708;20.368;2023-04-07T03:05:02;5.40;73.80
14798;DHT22;7490;63.708;20.368;2023-04-07T03:07:28;5.30;73.80
14798;DHT22;7490;63.708;20.368;2023-04-07T03:09:56;5.30;73.90
14798;DHT22;7490;63.708;20.368;2023-04-07T03:12:22;5.30;74.00
14798;DHT22;7490;63.708;20.368;2023-04-07T03:14:47;5.30;74.10
14798;DHT22;7490;63.708;20.368;2023-04-07T03:17:13;5.30;74.20
14798;DHT22;7490;63.708;20.368;2023-04-07T03:19:39;5.30;74.10
14798;DHT22;7490;63.708;20.368;2023-04-07T03:22:04;5.30;74.20
14798;DHT22;7490;63.708;20.368;2023-04-07T03:24:30;5.20;74.30
14798;DHT22;7490;63.708;20.368;2023-04-07T03:26:56;5.20;74.40
14798;DHT22;7490;63.708;20.368;2023-04-07T03:29:22;5.20;74.50
14798;DHT22;7490;63.708;20.368;2023-04-07T03:31:47;5.10;74.50
14798;DHT22;7490;63.708;20.368;2023-04-07T03:34:13;5.10;74.60
14798;DHT22;7490;63.708;20.368;2023-04-07T03:36:39;5.10;74.80
14798;DHT22;7490;63.708;20.368;2023-04-07T03:39:05;5.10;74.80
14798;DHT22;7490;63.708;20.368;2023-04-07T03:41:31;5.10;74.90
14798;DHT22;7490;63.708;20.368;2023-04-07T03:43:57;5.10;75.00
14798;DHT22;7490;63.708;20.368;2023-04-07T03:46:22;5.10;75.00
14798;DHT22;7490;63.708;20.368;2023-04-07T03:48:51;5.10;75.10
14798;DHT22;7490;63.708;20.368;2023-04-07T03:51:16;5.10;75.20
14798;DHT22;7490;63.708;20.368;2023-04-07T03:53:42;5.10;75.30
14798;DHT22;7490;63.708;20.368;2023-04-07T03:56:08;5.00;75.40
14798;DHT22;7490;63.708;20.368;2023-04-07T03:58:34;5.00;75.50
14798;DHT22;7490;63.708;20.368;2023-04-07T04:01:00;5.10;75.60
14798;DHT22;7490;63.708;20.368;2023-04-07T04:03:25;5.10;75.60
14798;DHT22;7490;63.708;20.368;2023-04-07T04:05:51;5.10;75.60
14798;DHT22;7490;63.708;20.368;2023-04-07T04:08:17;5.10;75.60
14798;DHT22;7490;63.708;20.368;2023-04-07T04:10:42;5.10;75.70
14798;DHT22;7490;63.708;20.368;2023-04-07T04:13:08;5.40;75.90
14798;DHT22;7490;63.708;20.368;2023-04-07T04:15:34;5.20;75.80
14798;DHT22;7490;63.708;20.368;2023-04-07T04:18:00;5.30;75.90
14798;DHT22;7490;63.708;20.368;2023-04-07T04:20:25;5.40;76.10
14798;DHT22;7490;63.708;20.368;2023-04-07T04:22:51;5.60;76.30
14798;DHT22;7490;63.708;20.368;2023-04-07T04:25:17;5.70;76.10
14798;DHT22;7490;63.708;20.368;2023-04-07T04:27:42;5.90;76.00
14798;DHT22;7490;63.708;20.368;2023-04-07T04:30:08;6.00;75.30
14798;DHT22;7490;63.708;20.368;2023-04-07T04:32:34;6.00;75.00
14798;DHT22;7490;63.708;20.368;2023-04-07T04:35:00;6.00;74.80
14798;DHT22;7490;63.708;20.368;2023-04-07T04:37:26;6.00;74.70
14798;DHT22;7490;63.708;20.368;2023-04-07T04:39:52;6.00;74.80
14798;DHT22;7490;63.708;20.368;2023-04-07T04:42:17;5.90;75.00
14798;DHT22;7490;63.708;20.368;2023-04-07T04:44:43;5.90;75.00
14798;DHT22;7490;63.708;20.368;2023-04-07T04:47:08;6.00;75.30
14798;DHT22;7490;63.708;20.368;2023-04-07T04:49:34;6.00;75.20
14798;DHT22;7490;63.708;20.368;2023-04-07T04:52:00;6.10;75.20
14798;DHT22;7490;63.708;20.368;2023-04-07T04:54:26;6.20;75.10
14798;DHT22;7490;63.708;20.368;2023-04-07T04:56:52;6.20;74.90
14798;DHT22;7490;63.708;20.368;2023-04-07T04:59:17;6.20;74.70
14798;DHT22;7490;63.708;20.368;2023-04-07T05:01:43;6.20;74.60
14798;DHT22;7490;63.708;20.368;2023-04-07T05:04:09;6.20;74.60
14798;DHT22;7490;63.708;20.368;2023-04-07T05:06:34;6.30;74.40
14798;DHT22;7490;63.708;20.368;2023-04-07T05:09:00;6.30;74.30
14798;DHT22;7490;63.708;20.368;2023-04-07T05:11:26;6.30;74.30
14798;DHT22;7490;63.708;20.368;2023-04-07T05:13:52;6.30;74.40
14798;DHT22;7490;63.708;20.368;2023-04-07T05:16:17;6.30;74.30
14798;DHT22;7490;63.708;20.368;2023-04-07T05:18:43;6.30;74.20
14798;DHT22;7490;63.708;20.368;2023-04-07T05:21:08;6.40;74.20
14798;DHT22;7490;63.708;20.368;2023-04-07T05:23:35;6.30;74.10
14798;DHT22;7490;63.708;20.368;2023-04-07T05:26:01;6.30;74.10
14798;DHT22;7490;63.708;20.368;2023-04-07T05:28:26;6.30;74.10
14798;DHT22;7490;63.708;20.368;2023-04-07T05:30:52;6.30;74.30
14798;DHT22;7490;63.708;20.368;2023-04-07T05:33:18;6.20;74.30
14798;DHT22;7490;63.708;20.368;2023-04-07T05:35:44;6.20;74.50
14798;DHT22;7490;63.708;20.368;2023-04-07T05:38:10;6.20;74.50
14798;DHT22;7490;63.708;20.368;2023-04-07T05:40:36;6.20;74.60
14798;DHT22;7490;63.708;20.368;2023-04-07T05:43:02;6.20;74.70
14798;DHT22;7490;63.708;20.368;2023-04-07T05:45:27;6.30;74.70
14798;DHT22;7490;63.708;20.368;2023-04-07T05:47:53;6.30;74.80
14798;DHT22;7490;63.708;20.368;2023-04-07T05:50:19;6.30;74.70
14798;DHT22;7490;63.708;20.368;2023-04-07T05:52:44;6.30;74.70
14798;DHT22;7490;63.708;20.368;2023-04-07T05:55:10;6.30;74.60
14798;DHT22;7490;63.708;20.368;2023-04-07T05:57:36;6.40;74.70
14798;DHT22;7490;63.708;20.368;2023-04-07T06:00:02;6.40;74.60
14798;DHT22;7490;63.708;20.368;2023-04-07T06:02:29;6.50;74.60
14798;DHT22;7490;63.708;20.368;2023-04-07T06:04:54;6.50;74.60
14798;DHT22;7490;63.708;20.368;2023-04-07T06:07:20;6.60;74.50
14798;DHT22;7490;63.708;20.368;2023-04-07T06:09:46;6.70;74.40
14798;DHT22;7490;63.708;20.368;2023-04-07T06:12:12;6.80;74.30
14798;DHT22;7490;63.708;20.368;2023-04-07T06:14:38;6.80;74.20
14798;DHT22;7490;63.708;20.368;2023-04-07T06:17:04;6.90;74.30
14798;DHT22;7490;63.708;20.368;2023-04-07T06:19:31;7.00;74.30
14798;DHT22;7490;63.708;20.368;2023-04-07T06:21:57;7.00;74.10
14798;DHT22;7490;63.708;20.368;2023-04-07T06:24:23;7.10;74.10
14798;DHT22;7490;63.708;20.368;2023-04-07T06:26:50;7.10;73.90
14798;DHT22;7490;63.708;20.368;2023-04-07T06:29:16;7.20;73.80
14798;DHT22;7490;63.708;20.368;2023-04-07T06:31:42;7.20;73.70
14798;DHT22;7490;63.708;20.368;2023-04-07T06:34:07;7.30;73.60
14798;DHT22;7490;63.708;20.368;2023-04-07T06:36:33;7.30;73.50
14798;DHT22;7490;63.708;20.368;2023-04-07T06:38:59;7.20;73.30
14798;DHT22;7490;63.708;20.368;2023-04-07T06:41:25;7.20;73.40
14798;DHT22;7490;63.708;20.368;2023-04-07T06:43:51;7.20;73.40
14798;DHT22;7490;63.708;20.368;2023-04-07T06:46:17;7.20;73.60
14798;DHT22;7490;63.708;20.368;2023-04-07T06:48:43;7.10;73.50
14798;DHT22;7490;63.708;20.368;2023-04-07T06:51:09;7.10;73.60
14798;DHT22;7490;63.708;20.368;2023-04-07T06:53:35;7.00;73.80
14798;DHT22;7490;63.708;20.368;2023-04-07T06:56:05;7.10;74.10
14798;DHT22;7490;63.708;20.368;2023-04-07T06:58:32;7.10;74.30
14798;DHT22;7490;63.708;20.368;2023-04-07T07:00:57;7.20;74.40
14798;DHT22;7490;63.708;20.368;2023-04-07T07:03:24;7.30;74.30
14798;DHT22;7490;63.708;20.368;2023-04-07T07:05:54;7.30;73.80
14798;DHT22;7490;63.708;20.368;2023-04-07T07:08:27;7.30;73.40
14798;DHT22;7490;63.708;20.368;2023-04-07T07:10:53;7.20;73.20
14798;DHT22;7490;63.708;20.368;2023-04-07T07:13:21;7.00;73.20
14798;DHT22;7490;63.708;20.368;2023-04-07T07:15:48;7.20;73.80
14798;DHT22;7490;63.708;20.368;2023-04-07T07:18:14;6.90;74.10
14798;DHT22;7490;63.708;20.368;2023-04-07T07:20:40;6.90;75.20
14798;DHT22;7490;63.708;20.368;2023-04-07T07:23:05;6.90;74.70
14798;DHT22;7490;63.708;20.368;2023-04-07T07:25:31;7.00;74.60
14798;DHT22;7490;63.708;20.368;2023-04-07T07:27:57;7.10;75.40
14798;DHT22;7490;63.708;20.368;2023-04-07T07:30:23;7.20;74.40
14798;DHT22;7490;63.708;20.368;2023-04-07T07:32:49;7.30;74.20
14798;DHT22;7490;63.708;20.368;2023-04-07T07:35:50;7.30;74.30
14798;DHT22;7490;63.708;20.368;2023-04-07T07:41:57;7.50;74.20
14798;DHT22;7490;63.708;20.368;2023-04-07T07:48:05;7.80;73.80
14798;DHT22;7490;63.708;20.368;2023-04-07T07:54:04;8.00;73.10
14798;DHT22;7490;63.708;20.368;2023-04-07T07:56:52;7.80;72.40
14798;DHT22;7490;63.708;20.368;2023-04-07T07:59:37;7.90;72.80
14798;DHT22;7490;63.708;20.368;2023-04-07T08:02:18;7.80;72.50
14798;DHT22;7490;63.708;20.368;2023-04-07T08:05:02;7.80;72.30
14798;DHT22;7490;63.708;20.368;2023-04-07T08:14:30;7.60;72.70
14798;DHT22;7490;63.708;20.368;2023-04-07T08:17:30;7.50;72.90
14798;DHT22;7490;63.708;20.368;2023-04-07T08:20:15;7.30;73.20
14798;DHT22;7490;63.708;20.368;2023-04-07T08:22:54;7.40;73.10
14798;DHT22;7490;63.708;20.368;2023-04-07T08:25:38;7.20;73.40
14798;DHT22;7490;63.708;20.368;2023-04-07T08:28:27;7.50;73.60
14798;DHT22;7490;63.708;20.368;2023-04-07T08:31:18;7.50;73.70
14798;DHT22;7490;63.708;20.368;2023-04-07T08:34:23;7.50;73.80
14798;DHT22;7490;63.708;20.368;2023-04-07T08:37:20;7.60;74.00
14798;DHT22;7490;63.708;20.368;2023-04-07T08:40:04;7.40;73.50
14798;DHT22;7490;63.708;20.368;2023-04-07T08:43:01;7.30;73.20
14798;DHT22;7490;63.708;20.368;2023-04-07T08:49:03;6.90;73.30
14798;DHT22;7490;63.708;20.368;2023-04-07T08:51:50;6.90;73.70
14798;DHT22;7490;63.708;20.368;2023-04-07T08:54:34;6.90;74.10
14798;DHT22;7490;63.708;20.368;2023-04-07T08:57:19;6.80;74.10
14798;DHT22;7490;63.708;20.368;2023-04-07T08:59:55;6.90;74.50
14798;DHT22;7490;63.708;20.368;2023-04-07T09:02:50;7.00;74.70
14798;DHT22;7490;63.708;20.368;2023-04-07T09:05:27;6.80;74.60
14798;DHT22;7490;63.708;20.368;2023-04-07T09:08:11;6.80;74.60
14798;DHT22;7490;63.708;20.368;2023-04-07T09:10:45;6.80;74.50
14798;DHT22;7490;63.708;20.368;2023-04-07T09:13:11;6.80;74.90
14798;DHT22;7490;63.708;20.368;2023-04-07T09:15:37;6.80;75.20
14798;DHT22;7490;63.708;20.368;2023-04-07T09:18:04;6.80;75.40
14798;DHT22;7490;63.708;20.368;2023-04-07T09:20:54;6.80;75.60
14798;DHT22;7490;63.708;20.368;2023-04-07T09:23:37;6.90;75.70
14798;DHT22;7490;63.708;20.368;2023-04-07T09:26:22;6.90;75.70
14798;DHT22;7490;63.708;20.368;2023-04-07T09:28:56;7.00;76.00
14798;DHT22;7490;63.708;20.368;2023-04-07T09:31:23;7.10;76.00
14798;DHT22;7490;63.708;20.368;2023-04-07T09:33:51;7.20;76.10
14798;DHT22;7490;63.708;20.368;2023-04-07T09:36:17;7.30;75.90
14798;DHT22;7490;63.708;20.368;2023-04-07T09:38:44;7.40;75.90
14798;DHT22;7490;63.708;20.368;2023-04-07T09:41:11;7.50;75.60
14798;DHT22;7490;63.708;20.368;2023-04-07T09:43:42;7.60;75.60
14798;DHT22;7490;63.708;20.368;2023-04-07T09:46:16;7.60;75.60
14798;DHT22;7490;63.708;20.368;2023-04-07T09:48:44;7.70;75.60
14798;DHT22;7490;63.708;20.368;2023-04-07T09:51:12;7.90;75.50
14798;DHT22;7490;63.708;20.368;2023-04-07T09:56:11;8.00;74.80
14798;DHT22;7490;63.708;20.368;2023-04-07T09:58:37;8.10;74.50
14798;DHT22;7490;63.708;20.368;2023-04-07T10:01:06;8.10;74.30
14798;DHT22;7490;63.708;20.368;2023-04-07T10:03:33;8.10;74.20
14798;DHT22;7490;63.708;20.368;2023-04-07T10:06:00;8.10;74.20
14798;DHT22;7490;63.708;20.368;2023-04-07T10:08:27;8.10;74.40
14798;DHT22;7490;63.708;20.368;2023-04-07T10:10:54;8.10;74.50
14798;DHT22;7490;63.708;20.368;2023-04-07T10:13:20;8.20;74.50
14798;DHT22;7490;63.708;20.368;2023-04-07T10:15:47;8.20;74.40
14798;DHT22;7490;63.708;20.368;2023-04-07T10:18:14;8.30;74.50
14798;DHT22;7490;63.708;20.368;2023-04-07T10:20:41;8.50;74.40
14798;DHT22;7490;63.708;20.368;2023-04-07T10:23:15;8.60;74.20
14798;DHT22;7490;63.708;20.368;2023-04-07T10:25:44;8.80;74.30
14798;DHT22;7490;63.708;20.368;2023-04-07T10:28:11;8.90;74.10
14798;DHT22;7490;63.708;20.368;2023-04-07T10:30:38;9.10;74.10
14798;DHT22;7490;63.708;20.368;2023-04-07T10:33:05;9.30;74.20
14798;DHT22;7490;63.708;20.368;2023-04-07T10:36:05;10.00;75.30
14798;DHT22;7490;63.708;20.368;2023-04-07T10:38:31;11.10;73.10
14798;DHT22;7490;63.708;20.368;2023-04-07T10:40:57;12.10;71.40
14798;DHT22;7490;63.708;20.368;2023-04-07T10:43:37;13.10;69.10
14798;DHT22;7490;63.708;20.368;2023-04-07T10:46:04;13.90;65.80
14798;DHT22;7490;63.708;20.368;2023-04-07T10:48:30;14.60;64.30
14798;DHT22;7490;63.708;20.368;2023-04-07T10:53:29;15.50;60.10
14798;DHT22;7490;63.708;20.368;2023-04-07T10:55:56;15.90;59.60
14798;DHT22;7490;63.708;20.368;2023-04-07T10:58:27;16.20;58.20
14798;DHT22;7490;63.708;20.368;2023-04-07T11:03:25;16.50;57.10
14798;DHT22;7490;63.708;20.368;2023-04-07T11:05:51;16.90;56.30
14798;DHT22;7490;63.708;20.368;2023-04-07T11:08:37;17.10;55.20
14798;DHT22;7490;63.708;20.368;2023-04-07T11:11:07;16.90;53.90
14798;DHT22;7490;63.708;20.368;2023-04-07T11:16:08;15.40;54.10
14798;DHT22;7490;63.708;20.368;2023-04-07T11:18:35;14.50;55.50
14798;DHT22;7490;63.708;20.368;2023-04-07T11:21:02;13.60;56.20
14798;DHT22;7490;63.708;20.368;2023-04-07T11:23:28;12.90;57.50
14798;DHT22;7490;63.708;20.368;2023-04-07T11:26:01;12.40;58.90
14798;DHT22;7490;63.708;20.368;2023-04-07T11:28:28;12.10;59.70
14798;DHT22;7490;63.708;20.368;2023-04-07T11:30:55;12.00;60.10
14798;DHT22;7490;63.708;20.368;2023-04-07T11:33:25;11.80;60.10
14798;DHT22;7490;63.708;20.368;2023-04-07T11:35:54;11.60;60.20
14798;DHT22;7490;63.708;20.368;2023-04-07T11:38:21;11.30;60.70
14798;DHT22;7490;63.708;20.368;2023-04-07T11:40:47;11.10;61.30
14798;DHT22;7490;63.708;20.368;2023-04-07T11:43:23;10.90;61.70
14798;DHT22;7490;63.708;20.368;2023-04-07T11:46:12;10.70;62.20
14798;DHT22;7490;63.708;20.368;2023-04-07T11:48:40;10.60;63.00
14798;DHT22;7490;63.708;20.368;2023-04-07T11:51:17;10.60;63.20
14798;DHT22;7490;63.708;20.368;2023-04-07T11:53:44;10.50;63.50
14798;DHT22;7490;63.708;20.368;2023-04-07T11:56:12;10.30;63.30
14798;DHT22;7490;63.708;20.368;2023-04-07T11:58:54;10.30;64.80
14798;DHT22;7490;63.708;20.368;2023-04-07T12:01:20;10.20;64.10
14798;DHT22;7490;63.708;20.368;2023-04-07T12:06:31;10.00;64.40
14798;DHT22;7490;63.708;20.368;2023-04-07T12:09:00;9.90;64.40
14798;DHT22;7490;63.708;20.368;2023-04-07T12:11:26;9.80;64.80
14798;DHT22;7490;63.708;20.368;2023-04-07T12:13:52;9.70;65.30
14798;DHT22;7490;63.708;20.368;2023-04-07T12:16:19;9.70;65.70
14798;DHT22;7490;63.708;20.368;2023-04-07T12:18:45;9.60;65.10
14798;DHT22;7490;63.708;20.368;2023-04-07T12:21:10;9.30;65.00
14798;DHT22;7490;63.708;20.368;2023-04-07T12:23:36;9.10;65.70
14798;DHT22;7490;63.708;20.368;2023-04-07T12:26:02;8.90;66.20
14798;DHT22;7490;63.708;20.368;2023-04-07T12:28:27;8.70;66.60
14798;DHT22;7490;63.708;20.368;2023-04-07T12:30:54;8.50;66.90
14798;DHT22;7490;63.708;20.368;2023-04-07T12:33:20;8.30;67.40
14798;DHT22;7490;63.708;20.368;2023-04-07T12:35:46;8.20;67.70
14798;DHT22;7490;63.708;20.368;2023-04-07T12:38:12;8.00;68.00
14798;DHT22;7490;63.708;20.368;2023-04-07T12:40:37;7.90;68.40
14798;DHT22;7490;63.708;20.368;2023-04-07T12:43:04;7.80;69.00
14798;DHT22;7490;63.708;20.368;2023-04-07T12:45:30;7.70;69.30
14798;DHT22;7490;63.708;20.368;2023-04-07T12:47:56;7.70;69.40
14798;DHT22;7490;63.708;20.368;2023-04-07T12:50:22;7.70;69.60
14798;DHT22;7490;63.708;20.368;2023-04-07T12:52:49;7.80;69.90
14798;DHT22;7490;63.708;20.368;2023-04-07T12:55:16;7.60;69.90
14798;DHT22;7490;63.708;20.368;2023-04-07T12:57:42;7.60;70.20
14798;DHT22;7490;63.708;20.368;2023-04-07T13:00:08;7.60;70.30
14798;DHT22;7490;63.708;20.368;2023-04-07T13:02:34;7.50;70.30
14798;DHT22;7490;63.708;20.368;2023-04-07T13:05:02;7.50;70.40
14798;DHT22;7490;63.708;20.368;2023-04-07T13:07:28;7.40;70.50
14798;DHT22;7490;63.708;20.368;2023-04-07T13:09:54;7.40;70.80
14798;DHT22;7490;63.708;20.368;2023-04-07T13:12:19;7.50;71.00
14798;DHT22;7490;63.708;20.368;2023-04-07T13:14:45;7.50;70.90
14798;DHT22;7490;63.708;20.368;2023-04-07T13:17:11;7.50;70.80
14798;DHT22;7490;63.708;20.368;2023-04-07T13:19:37;7.50;70.70
14798;DHT22;7490;63.708;20.368;2023-04-07T13:22:03;7.60;70.80
14798;DHT22;7490;63.708;20.368;2023-04-07T13:24:28;7.60;70.60
14798;DHT22;7490;63.708;20.368;2023-04-07T13:26:54;7.50;70.60
14798;DHT22;7490;63.708;20.368;2023-04-07T13:29:22;7.50;70.60
14798;DHT22;7490;63.708;20.368;2023-04-07T13:31:47;7.50;70.70
14798;DHT22;7490;63.708;20.368;2023-04-07T13:34:13;7.40;70.70
14798;DHT22;7490;63.708;20.368;2023-04-07T13:36:40;7.40;70.80
14798;DHT22;7490;63.708;20.368;2023-04-07T13:39:06;7.50;71.00
14798;DHT22;7490;63.708;20.368;2023-04-07T13:41:32;7.50;70.90
14798;DHT22;7490;63.708;20.368;2023-04-07T13:43:59;7.50;70.90
14798;DHT22;7490;63.708;20.368;2023-04-07T13:46:25;7.50;70.80
14798;DHT22;7490;63.708;20.368;2023-04-07T13:48:51;7.50;70.50
14798;DHT22;7490;63.708;20.368;2023-04-07T13:51:17;7.50;70.60
14798;DHT22;7490;63.708;20.368;2023-04-07T13:53:43;7.50;70.60
14798;DHT22;7490;63.708;20.368;2023-04-07T13:56:09;7.50;70.70
14798;DHT22;7490;63.708;20.368;2023-04-07T13:58:35;7.50;70.60
14798;DHT22;7490;63.708;20.368;2023-04-07T14:01:01;7.50;70.20
14798;DHT22;7490;63.708;20.368;2023-04-07T14:03:26;7.50;70.10
14798;DHT22;7490;63.708;20.368;2023-04-07T14:05:52;7.50;69.90
14798;DHT22;7490;63.708;20.368;2023-04-07T14:08:20;7.50;69.70
14798;DHT22;7490;63.708;20.368;2023-04-07T14:10:48;7.70;69.80
14798;DHT22;7490;63.708;20.368;2023-04-07T14:13:14;7.40;69.70
14798;DHT22;7490;63.708;20.368;2023-04-07T14:15:40;7.40;69.70
14798;DHT22;7490;63.708;20.368;2023-04-07T14:18:05;7.30;69.60
14798;DHT22;7490;63.708;20.368;2023-04-07T14:20:32;7.30;69.90
14798;DHT22;7490;63.708;20.368;2023-04-07T14:22:58;7.30;70.00
14798;DHT22;7490;63.708;20.368;2023-04-07T14:25:23;7.30;69.90
14798;DHT22;7490;63.708;20.368;2023-04-07T14:27:50;7.20;69.90
14798;DHT22;7490;63.708;20.368;2023-04-07T14:30:17;7.20;70.00
14798;DHT22;7490;63.708;20.368;2023-04-07T14:32:43;7.20;70.10
14798;DHT22;7490;63.708;20.368;2023-04-07T14:35:09;7.20;70.20
14798;DHT22;7490;63.708;20.368;2023-04-07T14:37:35;7.20;70.30
14798;DHT22;7490;63.708;20.368;2023-04-07T14:40:04;7.10;70.30
14798;DHT22;7490;63.708;20.368;2023-04-07T14:42:30;7.10;70.40
14798;DHT22;7490;63.708;20.368;2023-04-07T14:44:57;7.10;70.40
14798;DHT22;7490;63.708;20.368;2023-04-07T14:47:23;7.10;70.20
14798;DHT22;7490;63.708;20.368;2023-04-07T14:49:49;6.90;70.00
14798;DHT22;7490;63.708;20.368;2023-04-07T14:52:15;7.00;70.20
14798;DHT22;7490;63.708;20.368;2023-04-07T14:54:41;7.00;70.40
14798;DHT22;7490;63.708;20.368;2023-04-07T14:57:07;7.00;70.70
14798;DHT22;7490;63.708;20.368;2023-04-07T14:59:32;7.10;70.90
14798;DHT22;7490;63.708;20.368;2023-04-07T15:01:58;7.20;70.70
14798;DHT22;7490;63.708;20.368;2023-04-07T15:04:24;7.20;70.60
14798;DHT22;7490;63.708;20.368;2023-04-07T15:06:49;7.20;70.40
14798;DHT22;7490;63.708;20.368;2023-04-07T15:09:15;7.20;70.50
14798;DHT22;7490;63.708;20.368;2023-04-07T15:11:41;7.20;70.60
14798;DHT22;7490;63.708;20.368;2023-04-07T15:14:06;7.20;70.70
14798;DHT22;7490;63.708;20.368;2023-04-07T15:16:32;7.10;70.80
14798;DHT22;7490;63.708;20.368;2023-04-07T15:18:58;7.10;70.80
14798;DHT22;7490;63.708;20.368;2023-04-07T15:21:24;7.10;71.00
14798;DHT22;7490;63.708;20.368;2023-04-07T15:23:51;7.10;71.10
14798;DHT22;7490;63.708;20.368;2023-04-07T15:26:17;7.10;71.20
14798;DHT22;7490;63.708;20.368;2023-04-07T15:28:42;7.10;71.20
14798;DHT22;7490;63.708;20.368;2023-04-07T15:31:08;7.10;71.40
14798;DHT22;7490;63.708;20.368;2023-04-07T15:33:35;7.10;71.20
14798;DHT22;7490;63.708;20.368;2023-04-07T15:36:01;7.10;71.20
14798;DHT22;7490;63.708;20.368;2023-04-07T15:38:28;7.00;71.30
14798;DHT22;7490;63.708;20.368;2023-04-07T15:40:53;7.00;71.50
14798;DHT22;7490;63.708;20.368;2023-04-07T15:43:19;7.00;71.60
14798;DHT22;7490;63.708;20.368;2023-04-07T15:45:46;6.90;71.50
14798;DHT22;7490;63.708;20.368;2023-04-07T15:48:12;6.90;71.70
14798;DHT22;7490;63.708;20.368;2023-04-07T15:50:38;6.80;71.70
14798;DHT22;7490;63.708;20.368;2023-04-07T15:53:04;6.80;71.90
14798;DHT22;7490;63.708;20.368;2023-04-07T15:55:34;6.70;72.00
14798;DHT22;7490;63.708;20.368;2023-04-07T15:58:01;6.70;72.10
14798;DHT22;7490;63.708;20.368;2023-04-07T16:00:27;6.70;72.20
14798;DHT22;7490;63.708;20.368;2023-04-07T16:02:54;6.60;72.30
14798;DHT22;7490;63.708;20.368;2023-04-07T16:05:19;6.60;72.30
14798;DHT22;7490;63.708;20.368;2023-04-07T16:07:45;6.60;72.50
14798;DHT22;7490;63.708;20.368;2023-04-07T16:10:11;6.50;72.50
14798;DHT22;7490;63.708;20.368;2023-04-07T16:12:38;6.50;72.70
14798;DHT22;7490;63.708;20.368;2023-04-07T16:15:06;6.50;72.70
14798;DHT22;7490;63.708;20.368;2023-04-07T16:17:32;6.50;72.80
14798;DHT22;7490;63.708;20.368;2023-04-07T16:19:58;6.40;72.60
14798;DHT22;7490;63.708;20.368;2023-04-07T16:22:23;6.40;72.80
14798;DHT22;7490;63.708;20.368;2023-04-07T16:24:49;6.30;72.80
14798;DHT22;7490;63.708;20.368;2023-04-07T16:27:15;6.30;72.90
14798;DHT22;7490;63.708;20.368;2023-04-07T16:29:40;6.30;73.00
14798;DHT22;7490;63.708;20.368;2023-04-07T16:32:06;6.20;73.10